HTMG

Morogoro Airport

Morogoro, Tanzania
METAR HTMG 182100Z 06015KT 9999 FEW023 23/21 Q1014
Observed Flight Rules
Oct-18 @ 21:00 UTC (13 hours ago) Visual Flight Rules
Wind Visibility Clouds
60° at 15 knots 10,000+ meters
  • Few at 2,300' AGL
Temperatures Readings
Current 23°C / 73°F
Dewpoint 21°C / 70°F
Humidity 89%
Altimeter 29.94" Hg
Pressure 1014 hPa
Elevation 526
METAR HTMG 182100Z 06015KT 9999 FEW023 23/21 Q1014
Observed Flight Rules
Oct-18 @ 21:00 UTC
(13 hours ago)
VFR
Wind Visibility
60° at 15 knots 10,000+ meters
Clouds
  • Few at 2,300' AGL
Temperature Dewpoint
23°C / 73°F 21°C / 70°F
Humidity Altimeter Pressure
89% 29.94" Hg 1014 hPa